Terminal Aerodrome Forecast
Issued by NWS

Home | Current Version | Previous Version | Text Only | Print | Product List | Glossary On
Versions: 1 2 3 4 5 6 7 8 9 10 11 12 13 14 15 16 17 18 19
000
FTUS46 KEKA 240800 AAB
TAFCEC
TAF AMD
KCEC 240849Z 2409/2506 16015G23KT 3SM -RA BR SCT006 OVC015
      TEMPO 2409/2413 1SM RA BR BKN005 OVC010
     FM241300 16017G25KT 3SM -RA BR BKN005
     FM241700 18010KT P6SM -SHRA SCT015 BKN030=

USA.gov is the U.S. government's official web portal to all federal, state and local government web resources and services.